| time (UTC) | temp C | wind direction | speed KPH | gust KPH | rain 1hr cm | rain 24hr cm | rain mn cm | humidity % | barometer mb |
| 20260507231902 | 11 | 289 | 12.9 | 24.1 | 0.00 | 0.23 | 0.00 | 39 | 1006.1 |
| 20260507230338 | 11 | 279 | 16.1 | 22.5 | 0.00 | 0.23 | 0.00 | 39 | 1006.0 |
| 20260507224838 | 12 | 296 | 9.7 | 25.7 | 0.00 | 0.23 | 0.00 | 38 | 1005.8 |
| 20260507223336 | 12 | 261 | 16.1 | 27.4 | 0.00 | 0.25 | 0.00 | 38 | 1005.6 |
| 20260507221841 | 12 | 246 | 12.9 | 22.5 | 0.00 | 0.25 | 0.00 | 38 | 1005.5 |
| 20260507220339 | 12 | 296 | 4.8 | 24.1 | 0.00 | 0.25 | 0.00 | 38 | 1005.4 |
| 20260507214838 | 12 | 302 | 12.9 | 32.2 | 0.00 | 0.25 | 0.00 | 38 | 1005.4 |
| 20260507213335 | 12 | 298 | 12.9 | 25.7 | 0.00 | 0.41 | 0.00 | 37 | 1005.4 |
| 20260507211835 | 13 | 288 | 19.3 | 27.4 | 0.00 | 0.41 | 0.00 | 37 | 1005.3 |
| 20260507210336 | 13 | 218 | 14.5 | 19.3 | 0.00 | 0.41 | 0.00 | 37 | 1005.2 |
| 20260507204835 | 13 | 319 | 20.9 | 27.4 | 0.00 | 0.41 | 0.00 | 36 | 1005.1 |
| 20260507203331 | 13 | 272 | 19.3 | 30.6 | 0.00 | 0.74 | 0.00 | 37 | 1005.0 |
| 20260507201829 | 13 | 222 | 12.9 | 22.5 | 0.00 | 0.74 | 0.00 | 37 | 1005.0 |
| 20260507200330 | 13 | 236 | 24.1 | 33.8 | 0.00 | 0.74 | 0.00 | 36 | 1005.1 |
| 20260507194829 | 13 | 235 | 20.9 | 30.6 | 0.00 | 0.74 | 0.00 | 37 | 1005.0 |
| 20260507193326 | 13 | 209 | 14.5 | 33.8 | 0.00 | 0.81 | 0.00 | 37 | 1005.2 |
| 20260507191826 | 13 | 218 | 17.7 | 30.6 | 0.00 | 0.81 | 0.00 | 37 | 1005.2 |
| 20260507190344 | 12 | 267 | 14.5 | 32.2 | 0.00 | 0.81 | 0.00 | 39 | 1005.6 |
| 20260507184827 | 13 | 284 | 14.5 | 32.2 | 0.00 | 0.81 | 0.00 | 39 | 1005.5 |
| 20260507183345 | 13 | 318 | 16.1 | 29.0 | 0.00 | 0.89 | 0.00 | 40 | 1005.7 |
| 20260507181825 | 13 | 260 | 19.3 | 32.2 | 0.00 | 0.89 | 0.00 | 39 | 1005.8 |
| 20260507180323 | 12 | 248 | 4.8 | 27.4 | 0.00 | 0.89 | 0.00 | 41 | 1005.9 |
| 20260507174826 | 13 | 277 | 22.5 | 40.2 | 0.00 | 0.89 | 0.00 | 39 | 1005.7 |
| 20260507173323 | 12 | 304 | 19.3 | 33.8 | 0.00 | 0.91 | 0.00 | 42 | 1006.1 |
| 20260507171823 | 12 | 209 | 29.0 | 40.2 | 0.00 | 0.91 | 0.00 | 44 | 1006.0 |
| 20260507170339 | 12 | 273 | 20.9 | 40.2 | 0.00 | 0.91 | 0.00 | 43 | 1006.2 |
| 20260507164838 | 12 | 305 | 19.3 | 30.6 | 0.00 | 0.91 | 0.00 | 47 | 1006.4 |
| 20260507163400 | 11 | 254 | 20.9 | 41.8 | 0.00 | 0.91 | 0.00 | 51 | 1006.6 |
| 20260507161839 | 11 | 273 | 19.3 | 38.6 | 0.00 | 0.91 | 0.00 | 60 | 1006.8 |
| 20260507160336 | 11 | 238 | 19.3 | 30.6 | 0.00 | 0.91 | 0.00 | 59 | 1006.9 |
| 20260507154835 | 11 | 232 | 20.9 | 33.8 | 0.00 | 0.91 | 0.00 | 61 | 1006.9 |
| 20260507153333 | 11 | 275 | 22.5 | 43.5 | 0.00 | 0.91 | 0.00 | 62 | 1007.1 |
| 20260507151838 | 10 | 210 | 19.3 | 37.0 | 0.00 | 0.91 | 0.00 | 65 | 1007.2 |
| 20260507150357 | 11 | 225 | 17.7 | 37.0 | 0.00 | 0.91 | 0.00 | 67 | 1007.4 |
| 20260507144834 | 10 | 265 | 22.5 | 35.4 | 0.00 | 0.91 | 0.00 | 65 | 1007.3 |
| 20260507143331 | 11 | 216 | 19.3 | 33.8 | 0.00 | 0.91 | 0.00 | 61 | 1006.9 |
| 20260507141835 | 11 | 249 | 16.1 | 29.0 | 0.00 | 0.91 | 0.00 | 62 | 1007.0 |
| 20260507140333 | 11 | 309 | 11.3 | 24.1 | 0.00 | 0.91 | 0.00 | 64 | 1007.0 |
| 20260507134833 | 11 | 205 | 9.7 | 14.5 | 0.00 | 0.91 | 0.00 | 66 | 1007.1 |
| 20260507133331 | 10 | 209 | 4.8 | 6.4 | 0.00 | 0.91 | 0.00 | 70 | 1007.4 |
| 20260507131853 | 10 | 222 | 8.0 | 14.5 | 0.00 | 0.91 | 0.00 | 71 | 1007.6 |
| 20260507130334 | 10 | 238 | 6.4 | 12.9 | 0.00 | 0.91 | 0.00 | 70 | 1007.7 |
| 20260507124834 | 10 | 213 | 6.4 | 8.0 | 0.00 | 0.91 | 0.00 | 72 | 1007.5 |
| 20260507123331 | 8 | 221 | 3.2 | 6.4 | 0.00 | 0.91 | 0.00 | 73 | 1007.5 |
| 20260507121831 | 8 | 184 | 4.8 | 8.0 | 0.00 | 0.91 | 0.00 | 75 | 1007.7 |
| 20260507120332 | 8 | 234 | 4.8 | 8.0 | 0.00 | 0.91 | 0.00 | 79 | 1007.8 |
| 20260507114832 | 7 | 222 | 3.2 | 9.7 | 0.00 | 0.91 | 0.00 | 84 | 1007.8 |
| 20260507113351 | 7 | 248 | 4.8 | 6.4 | 0.00 | 0.91 | 0.00 | 82 | 1007.5 |
| 20260507111830 | 6 | 232 | 4.8 | 8.0 | 0.00 | 0.91 | 0.00 | 86 | 1007.6 |
| 20260507110327 | 6 | 283 | 0.0 | 3.2 | 0.00 | 0.91 | 0.00 | 89 | 1007.5 |
| 20260507104832 | 5 | 60 | 3.2 | 8.0 | 0.00 | 0.91 | 0.00 | 91 | 1007.3 |
| 20260507103328 | 5 | 211 | 0.0 | 3.2 | 0.00 | 0.91 | 0.00 | 91 | 1007.7 |
| 20260507101849 | 5 | 63 | 1.6 | 4.8 | 0.00 | 0.91 | 0.00 | 90 | 1007.6 |
| 20260507100325 | 5 | 230 | 0.0 | 3.2 | 0.00 | 0.91 | 0.00 | 87 | 1007.6 |
| 20260507094825 | 5 | 276 | 1.6 | 6.4 | 0.00 | 0.91 | 0.00 | 85 | 1007.4 |
| 20260507093326 | 5 | 252 | 4.8 | 6.4 | 0.00 | 0.91 | 0.00 | 84 | 1007.3 |
| 20260507091847 | 5 | 267 | 3.2 | 6.4 | 0.00 | 0.91 | 0.00 | 85 | 1007.1 |
| 20260507090323 | 5 | 286 | 0.0 | 3.2 | 0.00 | 0.91 | 0.00 | 89 | 1007.3 |
| 20260507084823 | 5 | 318 | 1.6 | 6.4 | 0.00 | 0.91 | 0.00 | 87 | 1007.0 |
| 20260507083324 | 5 | 265 | 1.6 | 6.4 | 0.00 | 0.91 | 0.00 | 90 | 1007.2 |
| 20260507081824 | 6 | 56 | 3.2 | 4.8 | 0.00 | 0.91 | 0.00 | 90 | 1007.2 |
| 20260507080321 | 6 | 66 | 4.8 | 6.4 | 0.00 | 0.91 | 0.00 | 86 | 1007.1 |
| 20260507074843 | 6 | 225 | 4.8 | 11.3 | 0.00 | 0.91 | 0.00 | 83 | 1006.7 |
| 20260507073341 | 7 | 284 | 6.4 | 12.9 | 0.00 | 0.91 | 0.00 | 84 | 1006.5 |
| 20260507071824 | 7 | 295 | 4.8 | 14.5 | 0.00 | 0.91 | 0.00 | 86 | 1006.7 |
| 20260507070343 | 7 | 259 | 3.2 | 11.3 | 0.00 | 0.91 | 0.00 | 87 | 1006.6 |
| 20260507064842 | 7 | 213 | 8.0 | 11.3 | 0.00 | 0.91 | 0.00 | 89 | 1006.7 |
| 20260507063338 | 7 | 252 | 11.3 | 30.6 | 0.00 | 0.91 | 0.00 | 88 | 1006.3 |
| 20260507061838 | 7 | 252 | 6.4 | 14.5 | 0.00 | 0.91 | 0.00 | 89 | 1006.1 |
| 20260507060341 | 7 | 254 | 8.0 | 16.1 | 0.00 | 0.91 | 0.00 | 90 | 1006.1 |
| 20260507054840 | 7 | 277 | 4.8 | 12.9 | 0.00 | 0.91 | 0.00 | 89 | 1006.0 |
| 20260507053337 | 7 | 260 | 4.8 | 11.3 | 0.00 | 0.91 | 0.00 | 90 | 1005.9 |
| 20260507051837 | 8 | 252 | 8.0 | 14.5 | 0.00 | 0.91 | 0.00 | 90 | 1006.0 |
| 20260507050338 | 8 | 269 | 6.4 | 17.7 | 0.00 | 0.91 | 0.00 | 88 | 1005.8 |
| 20260507044839 | 8 | 202 | 8.0 | 17.7 | 0.03 | 0.91 | 0.00 | 88 | 1006.0 |
| 20260507043337 | 8 | 268 | 6.4 | 22.5 | 0.03 | 0.91 | 0.91 | 88 | 1005.6 |
| 20260507041837 | 8 | 292 | 8.0 | 22.5 | 0.05 | 0.91 | 0.91 | 88 | 1006.0 |
| 20260507040339 | 9 | 338 | 4.8 | 12.9 | 0.05 | 0.91 | 0.91 | 90 | 1005.9 |
| 20260507034839 | 10 | 293 | 6.4 | 12.9 | 0.03 | 0.89 | 0.89 | 90 | 1005.8 |
| 20260507033337 | 10 | 268 | 8.0 | 16.1 | 0.03 | 0.89 | 0.89 | 91 | 1005.6 |
| 20260507031837 | 10 | 302 | 6.4 | 16.1 | 0.00 | 0.86 | 0.86 | 93 | 1005.8 |
| 20260507030335 | 11 | 281 | 8.0 | 16.1 | 0.00 | 0.86 | 0.86 | 93 | 1005.3 |
| 20260507024840 | 11 | 217 | 14.5 | 24.1 | 0.00 | 0.86 | 0.86 | 93 | 1005.2 |
| 20260507023335 | 11 | 244 | 11.3 | 16.1 | 0.00 | 0.86 | 0.86 | 93 | 1005.2 |
| 20260507021833 | 12 | 227 | 8.0 | 12.9 | 0.00 | 0.86 | 0.86 | 93 | 1005.2 |
| 20260507020329 | 12 | 237 | 8.0 | 14.5 | 0.03 | 0.86 | 0.86 | 93 | 1005.0 |
| 20260507014834 | 12 | 227 | 8.0 | 11.3 | 0.03 | 0.86 | 0.86 | 93 | 1004.9 |
| 20260507013331 | 13 | 221 | 3.2 | 12.9 | 0.03 | 0.86 | 0.86 | 92 | 1005.0 |
| 20260507011829 | 13 | 271 | 8.0 | 14.5 | 0.03 | 0.86 | 0.86 | 92 | 1005.0 |
| 20260507010325 | 13 | 256 | 6.4 | 9.7 | 0.00 | 0.84 | 0.84 | 92 | 1005.0 |
| 20260507004828 | 13 | 136 | 1.6 | 3.2 | 0.13 | 0.84 | 0.84 | 92 | 1004.8 |
| 20260507003324 | 13 | 215 | 3.2 | 6.4 | 0.13 | 0.84 | 0.84 | 93 | 1004.7 |
| 20260507001845 | 13 | 263 | 4.8 | 9.7 | 0.13 | 0.84 | 0.84 | 93 | 1004.7 |
| 20260507000323 | 13 | 280 | 1.6 | 9.7 | 0.13 | 0.84 | 0.84 | 93 | 1004.6 |
| 20260506234843 | 13 | 154 | 6.4 | 12.9 | 0.03 | 0.71 | 0.71 | 93 | 1004.5 |
| 20260506233323 | 13 | 59 | 6.4 | 16.1 | 0.03 | 0.71 | 0.71 | 92 | 1004.3 |